createdAt,value
2022-12-15T00:02:19.473Z,95687.97
2022-12-15T00:05:04.978Z,95697.25
2022-12-15T00:07:50.467Z,95700.19
2022-12-15T00:10:35.716Z,95696.28
2022-12-15T00:13:21.216Z,95708.63
2022-12-15T00:16:06.690Z,95702.56
2022-12-15T00:18:53.196Z,95699.75
2022-12-15T00:21:38.645Z,95704.22
2022-12-15T00:24:24.485Z,95710.28
2022-12-15T00:27:10.024Z,95724.72
2022-12-15T00:29:55.330Z,95730.94
2022-12-15T00:32:40.619Z,95726.28
2022-12-15T00:35:27.727Z,95723.00
2022-12-15T00:38:13.214Z,95718.63
2022-12-15T00:40:40.832Z,95723.78
2022-12-15T00:43:11.951Z,95730.84
2022-12-15T00:45:57.711Z,95741.06
2022-12-15T00:48:25.287Z,95756.84
2022-12-15T00:50:53.312Z,95749.06
2022-12-15T00:53:38.833Z,95754.81
2022-12-15T00:56:24.765Z,95748.84
2022-12-15T00:59:10.281Z,95747.53
2022-12-15T01:01:55.836Z,95757.53
2022-12-15T01:04:41.030Z,95762.69
2022-12-15T01:07:27.750Z,95758.72
2022-12-15T01:10:13.111Z,95758.25
2022-12-15T01:12:58.598Z,95768.47
2022-12-15T01:15:43.963Z,95775.97
2022-12-15T01:18:29.445Z,95775.47
2022-12-15T01:20:57.693Z,95773.94
2022-12-15T01:23:27.220Z,95775.22
2022-12-15T01:25:55.363Z,95783.56
2022-12-15T01:28:23.166Z,95789.44
2022-12-15T01:30:50.844Z,95789.56
2022-12-15T01:33:18.932Z,95795.69
2022-12-15T01:35:47.530Z,95791.56
2022-12-15T01:38:15.105Z,95800.81
2022-12-15T01:40:52.333Z,95806.41
2022-12-15T01:43:22.402Z,95812.03
2022-12-15T01:45:58.917Z,95809.44
2022-12-15T01:48:35.339Z,95810.78
2022-12-15T01:51:11.606Z,95798.91
2022-12-15T01:53:42.008Z,95795.97
2022-12-15T01:56:11.358Z,95800.75
2022-12-15T01:58:42.086Z,95795.81
2022-12-15T02:01:10.217Z,95803.25
2022-12-15T02:03:39.213Z,95836.97
2022-12-15T02:06:07.826Z,95845.88
2022-12-15T02:08:35.439Z,95833.94
2022-12-15T02:11:23.942Z,95834.66
2022-12-15T02:13:57.454Z,95829.19
2022-12-15T02:16:31.792Z,95837.38
2022-12-15T02:19:04.366Z,95839.03
2022-12-15T02:21:34.611Z,95839.50
2022-12-15T02:24:31.417Z,95847.03
2022-12-15T02:27:17.173Z,95840.44
2022-12-15T02:30:20.472Z,95838.13
2022-12-15T02:32:58.879Z,95822.16
2022-12-15T02:35:30.587Z,95823.91
2022-12-15T02:37:58.241Z,95834.09
2022-12-15T02:40:25.811Z,95860.66
2022-12-15T02:42:54.718Z,95860.78
2022-12-15T02:45:28.407Z,95858.81
2022-12-15T02:48:11.008Z,95866.22
2022-12-15T02:50:58.811Z,95861.03
2022-12-15T02:54:04.463Z,95837.63
2022-12-15T02:56:37.699Z,95839.66
2022-12-15T02:59:11.123Z,95846.34
2022-12-15T03:01:42.953Z,95843.50
2022-12-15T03:04:13.513Z,95848.47
2022-12-15T03:06:41.292Z,95855.88
2022-12-15T03:09:08.927Z,95856.59
2022-12-15T03:11:37.807Z,95871.75
2022-12-15T03:14:05.384Z,95885.94
2022-12-15T03:16:33.132Z,95879.50
2022-12-15T03:19:00.826Z,95890.66
2022-12-15T03:21:29.780Z,95890.06
2022-12-15T03:23:57.349Z,95892.78
2022-12-15T03:26:24.910Z,95886.19
2022-12-15T03:28:52.787Z,95890.16
2022-12-15T03:31:20.419Z,95884.66
2022-12-15T03:33:48.100Z,95882.22
2022-12-15T03:36:15.657Z,95876.31
2022-12-15T03:38:44.548Z,95874.06
2022-12-15T03:41:12.157Z,95868.88
2022-12-15T03:43:39.733Z,95867.81
2022-12-15T03:46:07.365Z,95884.25
2022-12-15T03:48:34.981Z,95885.44
2022-12-15T03:51:02.546Z,95882.16
2022-12-15T03:53:30.434Z,95891.13
2022-12-15T03:55:59.677Z,95897.78
2022-12-15T03:58:27.244Z,95897.69
2022-12-15T04:00:54.898Z,95906.63
2022-12-15T04:03:22.747Z,95896.84
2022-12-15T04:05:50.414Z,95885.56
2022-12-15T04:08:17.990Z,95893.16
2022-12-15T04:10:45.623Z,95909.13
2022-12-15T04:13:14.565Z,95908.19
2022-12-15T04:15:42.191Z,95915.72
2022-12-15T04:18:11.476Z,95927.00
2022-12-15T04:20:40.110Z,95917.59
2022-12-15T04:23:07.909Z,95916.69
2022-12-15T04:25:54.143Z,95920.31
2022-12-15T04:28:40.765Z,95930.66
2022-12-15T04:31:27.688Z,95928.75
2022-12-15T04:34:15.019Z,95928.66
2022-12-15T04:37:01.882Z,95941.69
2022-12-15T04:39:47.222Z,95945.81
2022-12-15T04:42:32.652Z,95930.75
2022-12-15T04:45:21.269Z,95925.59
2022-12-15T04:48:06.478Z,95925.47
2022-12-15T04:50:52.002Z,95929.50
2022-12-15T04:53:37.855Z,95937.38
2022-12-15T04:56:23.247Z,95945.50
2022-12-15T04:59:08.791Z,95956.19
2022-12-15T05:01:55.645Z,95956.66
2022-12-15T05:04:41.313Z,95965.69
2022-12-15T05:07:26.311Z,95957.13
2022-12-15T05:10:15.203Z,95980.19
2022-12-15T05:13:00.569Z,95990.84
2022-12-15T05:15:45.935Z,96005.78
2022-12-15T05:18:32.374Z,96001.31
2022-12-15T05:21:17.874Z,95992.25
2022-12-15T05:24:03.217Z,95985.44
2022-12-15T05:26:52.627Z,95981.56
2022-12-15T05:29:38.535Z,95973.09
2022-12-15T05:32:06.417Z,95967.59
2022-12-15T05:34:37.071Z,95976.78
2022-12-15T05:37:05.781Z,95998.03
2022-12-15T05:39:33.592Z,96007.81
2022-12-15T05:42:01.291Z,96018.13
2022-12-15T05:44:29.500Z,96019.88
2022-12-15T05:46:57.332Z,96000.41
2022-12-15T05:49:25.285Z,95987.94
2022-12-15T05:51:54.171Z,95995.94
2022-12-15T05:54:21.959Z,95992.16
2022-12-15T05:56:50.264Z,95980.53
2022-12-15T05:59:18.949Z,95981.13
2022-12-15T06:01:46.826Z,95992.63
2022-12-15T06:04:14.754Z,96006.38
2022-12-15T06:06:42.663Z,95999.91
2022-12-15T06:09:11.836Z,96009.53
2022-12-15T06:11:39.732Z,96017.06
2022-12-15T06:14:07.938Z,95989.91
2022-12-15T06:16:39.558Z,96012.84
2022-12-15T06:19:10.436Z,96029.03
2022-12-15T06:21:38.016Z,96049.16
2022-12-15T06:24:07.288Z,96051.50
2022-12-15T06:26:37.857Z,96042.81
2022-12-15T06:29:07.625Z,96037.72
2022-12-15T06:31:37.008Z,96040.56
2022-12-15T06:34:05.328Z,96040.44
2022-12-15T06:36:33.006Z,96051.97
2022-12-15T06:39:01.539Z,96048.78
2022-12-15T06:41:30.922Z,96053.47
2022-12-15T06:44:00.822Z,96056.66
2022-12-15T06:46:30.440Z,96065.81
2022-12-15T06:48:58.983Z,96070.19
2022-12-15T06:51:29.859Z,96067.72
2022-12-15T06:53:57.441Z,96085.91
2022-12-15T06:56:33.005Z,96076.97
2022-12-15T06:59:03.740Z,96085.31
2022-12-15T07:01:32.287Z,96068.19
2022-12-15T07:04:02.789Z,96071.22
2022-12-15T07:06:34.189Z,96078.16
2022-12-15T07:09:01.908Z,96076.78
2022-12-15T07:11:29.731Z,96074.88
2022-12-15T07:13:57.376Z,96083.13
2022-12-15T07:16:26.778Z,96079.94
2022-12-15T07:18:54.473Z,96081.59
2022-12-15T07:21:22.056Z,96070.41
2022-12-15T07:23:55.173Z,96067.25
2022-12-15T07:26:23.539Z,96068.53
2022-12-15T07:28:51.173Z,96065.00
2022-12-15T07:31:18.846Z,96063.13
2022-12-15T07:33:48.262Z,96076.66
2022-12-15T07:36:16.493Z,96082.88
2022-12-15T07:38:45.408Z,96085.00
2022-12-15T07:41:18.091Z,96089.94
2022-12-15T07:43:47.021Z,96074.97
2022-12-15T07:46:14.848Z,96078.63
2022-12-15T07:48:42.507Z,96077.94
2022-12-15T07:51:19.129Z,96064.97
2022-12-15T07:53:47.466Z,96065.94
2022-12-15T07:56:15.649Z,96071.22
2022-12-15T07:58:43.448Z,96083.09
2022-12-15T08:01:12.771Z,96095.31
2022-12-15T08:03:41.335Z,96095.09
2022-12-15T08:06:11.975Z,96102.97
2022-12-15T08:08:40.232Z,96099.19
2022-12-15T08:11:08.468Z,96099.31
2022-12-15T08:16:24.933Z,96115.75
2022-12-15T08:18:52.708Z,96099.28
2022-12-15T08:21:21.766Z,96110.09
2022-12-15T08:23:49.461Z,96114.91
2022-12-15T08:26:18.809Z,96118.81
2022-12-15T08:28:46.815Z,96118.69
2022-12-15T08:31:16.849Z,96122.56
2022-12-15T08:33:45.415Z,96128.22
2022-12-15T08:36:14.984Z,96135.50
2022-12-15T08:38:44.735Z,96126.13
2022-12-15T08:41:14.239Z,96128.22
2022-12-15T08:43:48.157Z,96118.78
2022-12-15T08:46:17.010Z,96126.34
2022-12-15T08:48:45.027Z,96129.69
2022-12-15T08:51:12.701Z,96116.06
2022-12-15T08:53:40.475Z,96123.47
2022-12-15T08:56:12.140Z,96123.72
2022-12-15T08:58:40.207Z,96130.59
2022-12-15T09:01:10.806Z,96150.88
2022-12-15T09:03:38.839Z,96147.69
2022-12-15T09:06:07.898Z,96147.53
2022-12-15T09:08:36.003Z,96148.72
2022-12-15T09:11:05.557Z,96148.50
2022-12-15T09:13:35.273Z,96160.03
2022-12-15T09:16:10.456Z,96163.50
2022-12-15T09:18:38.255Z,96161.75
2022-12-15T09:21:07.852Z,96172.63
2022-12-15T09:23:37.144Z,96173.38
2022-12-15T09:26:06.599Z,96168.94
2022-12-15T09:28:35.997Z,96166.88
2022-12-15T09:31:04.178Z,96169.72
2022-12-15T09:33:32.353Z,96168.78
2022-12-15T09:36:00.292Z,96163.78
2022-12-15T09:38:27.882Z,96160.75
2022-12-15T09:40:55.830Z,96149.56
2022-12-15T09:43:46.416Z,96127.69
2022-12-15T09:46:22.148Z,96128.31
2022-12-15T09:48:50.633Z,96138.28
2022-12-15T09:51:19.421Z,96144.91
2022-12-15T09:53:56.111Z,96127.88
2022-12-15T09:56:29.740Z,96126.66
2022-12-15T09:59:02.052Z,96127.59
2022-12-15T10:01:35.538Z,96116.59
2022-12-15T10:04:08.047Z,96115.19
2022-12-15T10:06:39.659Z,96118.53
2022-12-15T10:09:15.922Z,96107.97
2022-12-15T10:11:50.680Z,96098.28
2022-12-15T10:14:25.894Z,96088.03
2022-12-15T10:17:02.420Z,96102.38
2022-12-15T10:19:35.503Z,96101.06
2022-12-15T10:22:03.500Z,96095.47
2022-12-15T10:27:41.264Z,96094.25
2022-12-15T10:30:10.785Z,96085.75
2022-12-15T10:32:52.096Z,96105.28
2022-12-15T10:35:23.918Z,96096.09
2022-12-15T10:37:51.853Z,96098.13
2022-12-15T10:40:20.988Z,96097.31
2022-12-15T10:42:50.259Z,96101.91
2022-12-15T10:45:39.552Z,96099.56
2022-12-15T10:48:19.564Z,96089.53
2022-12-15T10:50:50.062Z,96080.25
2022-12-15T10:53:35.478Z,96078.78
2022-12-15T10:56:03.395Z,96068.34
2022-12-15T10:58:31.041Z,96061.66
2022-12-15T11:01:08.127Z,96056.44
2022-12-15T11:03:40.377Z,96052.09
2022-12-15T11:06:14.162Z,96047.28
2022-12-15T11:08:42.861Z,96040.47
2022-12-15T11:11:45.217Z,96043.88
2022-12-15T11:14:15.996Z,96044.44
2022-12-15T11:16:50.694Z,96041.94
2022-12-15T11:19:29.938Z,96038.41
2022-12-15T11:22:02.732Z,96044.69
2022-12-15T11:24:36.486Z,96040.03
2022-12-15T11:27:11.500Z,96041.78
2022-12-15T11:29:47.415Z,96040.38
2022-12-15T11:32:19.302Z,96060.31
2022-12-15T11:34:48.778Z,96061.41
2022-12-15T11:40:39.894Z,96055.94
2022-12-15T11:43:21.807Z,96064.44
2022-12-15T11:46:03.035Z,96060.44
2022-12-15T11:48:36.823Z,96056.97
2022-12-15T11:51:07.623Z,96056.56
2022-12-15T11:53:46.823Z,96046.06
2022-12-15T11:56:26.105Z,96049.88
2022-12-15T11:59:17.692Z,96057.50
2022-12-15T12:02:03.020Z,96051.16
2022-12-15T12:04:39.807Z,96055.84
2022-12-15T12:07:15.690Z,96049.03
2022-12-15T12:09:48.669Z,96053.44
2022-12-15T12:12:21.849Z,96037.84
2022-12-15T12:14:58.984Z,96031.03
2022-12-15T12:17:34.535Z,96024.31
2022-12-15T12:20:11.252Z,96018.19
2022-12-15T12:22:43.300Z,96018.28
2022-12-15T12:25:14.601Z,96016.00
2022-12-15T12:30:40.397Z,96014.19
2022-12-15T12:33:14.138Z,96023.53
2022-12-15T12:35:46.487Z,96028.56
2022-12-15T12:38:20.186Z,96028.84
2022-12-15T12:40:54.982Z,96028.97
2022-12-15T12:43:34.015Z,96030.06
2022-12-15T12:46:06.327Z,96029.53
2022-12-15T12:48:37.672Z,96029.94
2022-12-15T12:51:14.961Z,96029.50
2022-12-15T12:53:43.974Z,96024.44
2022-12-15T12:56:30.247Z,96028.41
2022-12-15T12:58:58.043Z,96026.44
2022-12-15T13:01:28.916Z,96023.59
2022-12-15T13:04:11.780Z,96022.94
2022-12-15T13:07:06.831Z,96028.13
2022-12-15T13:09:41.532Z,96022.25
2022-12-15T13:12:51.020Z,96009.81
2022-12-15T13:15:30.646Z,96004.78
2022-12-15T13:18:01.404Z,95996.69
2022-12-15T13:20:30.789Z,95996.69
2022-12-15T13:23:32.239Z,95986.75
2022-12-15T13:26:12.728Z,95984.25
2022-12-15T13:28:46.217Z,95980.03
2022-12-15T13:31:27.605Z,95983.03
2022-12-15T13:33:59.893Z,95983.81
2022-12-15T13:36:52.573Z,95982.97
2022-12-15T13:39:37.014Z,95986.78
2022-12-15T13:42:35.957Z,95978.47
2022-12-15T13:45:35.874Z,95969.47
2022-12-15T13:48:12.615Z,95963.28
2022-12-15T13:50:51.531Z,95953.72
2022-12-15T13:53:21.917Z,95951.25
2022-12-15T13:56:00.351Z,95953.41
2022-12-15T13:58:30.158Z,95956.94
2022-12-15T14:00:59.673Z,95962.09
2022-12-15T14:03:27.433Z,95963.09
2022-12-15T14:05:56.512Z,95964.91
2022-12-15T14:08:25.345Z,95967.19
2022-12-15T14:10:54.613Z,95966.53
2022-12-15T14:13:24.696Z,95962.84
2022-12-15T14:15:55.424Z,95956.41
2022-12-15T14:18:28.943Z,95955.72
2022-12-15T14:20:57.062Z,95960.22
2022-12-15T14:23:26.890Z,95966.31
2022-12-15T14:25:56.965Z,95973.38
2022-12-15T14:28:30.875Z,95968.38
2022-12-15T14:31:04.075Z,95967.78
2022-12-15T14:33:35.341Z,95967.19
2022-12-15T14:36:06.310Z,95957.72
2022-12-15T14:38:40.226Z,95958.47
2022-12-15T14:41:11.017Z,95956.09
2022-12-15T14:43:40.162Z,95945.97
2022-12-15T14:46:11.123Z,95949.44
2022-12-15T14:48:41.699Z,95960.44
2022-12-15T14:51:22.169Z,95958.97
2022-12-15T14:53:53.301Z,95957.06
2022-12-15T14:56:30.357Z,95951.34
2022-12-15T14:59:03.476Z,95945.97
2022-12-15T15:01:36.635Z,95946.34
2022-12-15T15:03:07.112Z,96010.63
2022-12-15T15:03:09.173Z,96062.63
2022-12-15T15:04:06.318Z,95934.22
2022-12-15T15:06:38.160Z,95934.16
2022-12-15T15:09:18.050Z,95932.19
2022-12-15T15:11:45.782Z,95930.53
2022-12-15T15:14:15.774Z,95928.81
2022-12-15T15:16:45.321Z,95936.13
2022-12-15T15:19:18.457Z,95934.72
2022-12-15T15:21:46.919Z,95934.72
2022-12-15T15:24:24.926Z,95930.06
2022-12-15T15:26:53.108Z,95937.44
2022-12-15T15:29:40.950Z,95939.91
2022-12-15T15:32:16.919Z,95942.50
2022-12-15T15:34:45.192Z,95930.13
2022-12-15T15:37:18.530Z,95918.06
2022-12-15T15:39:46.640Z,95940.72
2022-12-15T15:42:14.227Z,95938.50
2022-12-15T15:44:41.896Z,95948.41
2022-12-15T15:47:19.201Z,95958.97
2022-12-15T15:49:47.298Z,95960.75
2022-12-15T15:52:14.966Z,95965.09
2022-12-15T15:54:43.540Z,95961.78
2022-12-15T15:57:14.179Z,95968.03
2022-12-15T15:59:43.983Z,95973.47
2022-12-15T16:02:14.300Z,95965.13
2022-12-15T16:04:42.822Z,95961.13
2022-12-15T16:07:18.114Z,95958.88
2022-12-15T16:09:45.775Z,95955.03
2022-12-15T16:12:22.319Z,95954.19
2022-12-15T16:14:49.882Z,95966.44
2022-12-15T16:17:18.925Z,95952.94
2022-12-15T16:19:46.525Z,95943.31
2022-12-15T16:22:16.599Z,95943.66
2022-12-15T16:24:44.611Z,95944.81
2022-12-15T16:27:13.237Z,95947.53
2022-12-15T16:29:41.178Z,95951.03
2022-12-15T16:32:10.358Z,95956.59
2022-12-15T16:34:39.298Z,95954.56
2022-12-15T16:37:07.038Z,95946.81
2022-12-15T16:39:36.094Z,95943.28
2022-12-15T16:42:04.039Z,95934.13
2022-12-15T16:44:31.863Z,95932.50
2022-12-15T16:46:59.822Z,95931.69
2022-12-15T16:49:33.889Z,95938.50
2022-12-15T16:52:07.134Z,95932.88
2022-12-15T16:54:34.842Z,95919.00
2022-12-15T16:57:03.844Z,95904.91
2022-12-15T16:59:33.522Z,95910.75
2022-12-15T17:02:02.270Z,95906.53
2022-12-15T17:04:30.070Z,95903.84
2022-12-15T17:06:57.639Z,95898.44
2022-12-15T17:09:26.888Z,95903.84
2022-12-15T17:11:54.547Z,95910.41
2022-12-15T17:14:22.158Z,95906.78
2022-12-15T17:16:50.299Z,95904.78
2022-12-15T17:19:21.330Z,95899.28
2022-12-15T17:21:51.795Z,95911.72
2022-12-15T17:24:21.050Z,95910.16
2022-12-15T17:26:50.450Z,95913.47
2022-12-15T17:29:19.942Z,95912.75
2022-12-15T17:31:47.651Z,95916.63
2022-12-15T17:34:25.096Z,95925.53
2022-12-15T17:36:52.875Z,95933.63
2022-12-15T17:39:21.848Z,95936.22
2022-12-15T17:41:59.748Z,95936.66
2022-12-15T17:44:33.622Z,95924.22
2022-12-15T17:47:03.113Z,95935.88
2022-12-15T17:49:35.621Z,95923.75
2022-12-15T17:52:07.431Z,95932.09
2022-12-15T17:54:35.593Z,95920.09
2022-12-15T17:57:04.786Z,95922.06
2022-12-15T17:59:32.553Z,95920.91
2022-12-15T18:02:00.666Z,95917.59
2022-12-15T18:04:28.347Z,95909.38
2022-12-15T18:07:01.642Z,95898.06
2022-12-15T18:09:30.114Z,95907.59
2022-12-15T18:11:57.942Z,95893.84
2022-12-15T18:14:28.624Z,95881.44
2022-12-15T18:16:56.221Z,95875.44
2022-12-15T18:19:23.828Z,95875.00
2022-12-15T18:21:51.561Z,95864.25
2022-12-15T18:24:21.512Z,95860.84
2022-12-15T18:26:49.536Z,95864.19
2022-12-15T18:29:18.585Z,95853.72
2022-12-15T18:31:49.278Z,95856.44
2022-12-15T18:34:21.044Z,95857.13
2022-12-15T18:36:48.831Z,95849.13
2022-12-15T18:39:20.374Z,95848.53
2022-12-15T18:41:48.318Z,95838.63
2022-12-15T18:44:20.448Z,95837.94
2022-12-15T18:46:49.480Z,95841.88
2022-12-15T18:49:17.958Z,95846.47
2022-12-15T18:51:46.379Z,95837.84
2022-12-15T18:54:17.039Z,95842.16
2022-12-15T18:56:44.653Z,95831.03
2022-12-15T18:59:15.557Z,95835.09
2022-12-15T19:01:43.838Z,95834.31
2022-12-15T19:04:13.075Z,95829.72
2022-12-15T19:06:41.045Z,95835.44
2022-12-15T19:09:12.962Z,95836.53
2022-12-15T19:11:40.619Z,95835.88
2022-12-15T19:14:35.135Z,95836.38
2022-12-15T19:17:20.120Z,95840.75
2022-12-15T19:20:06.693Z,95837.59
2022-12-15T19:22:34.255Z,95838.19
2022-12-15T19:25:05.919Z,95819.72
2022-12-15T19:27:33.522Z,95824.41
2022-12-15T19:30:01.314Z,95823.38
2022-12-15T19:32:28.921Z,95828.19
2022-12-15T19:34:57.921Z,95828.28
2022-12-15T19:37:28.996Z,95815.50
2022-12-15T19:39:57.862Z,95811.28
2022-12-15T19:42:35.404Z,95816.19
2022-12-15T19:45:03.603Z,95811.19
2022-12-15T19:47:31.160Z,95807.81
2022-12-15T19:50:00.189Z,95798.97
2022-12-15T19:52:28.266Z,95796.78
2022-12-15T19:54:55.809Z,95773.69
2022-12-15T19:57:23.431Z,95776.81
2022-12-15T19:59:50.997Z,95781.03
2022-12-15T20:02:20.346Z,95772.59
2022-12-15T20:04:49.022Z,95769.75
2022-12-15T20:07:19.628Z,95769.25
2022-12-15T20:09:47.447Z,95771.34
2022-12-15T20:12:17.955Z,95773.09
2022-12-15T20:14:45.706Z,95770.41
2022-12-15T20:17:13.311Z,95750.94
2022-12-15T20:19:40.892Z,95769.25
2022-12-15T20:22:12.170Z,95760.53
2022-12-15T20:24:41.230Z,95751.13
2022-12-15T20:27:13.034Z,95746.91
2022-12-15T20:29:40.719Z,95752.75
2022-12-15T20:32:15.530Z,95750.19
2022-12-15T20:34:43.226Z,95757.25
2022-12-15T20:37:18.205Z,95762.66
2022-12-15T20:39:48.040Z,95751.13
2022-12-15T20:42:20.069Z,95746.22
2022-12-15T20:44:47.867Z,95736.44
2022-12-15T20:47:19.130Z,95740.50
2022-12-15T20:49:46.708Z,95740.69
2022-12-15T20:52:20.181Z,95726.09
2022-12-15T20:54:49.185Z,95742.16
2022-12-15T20:57:17.558Z,95738.78
2022-12-15T20:59:45.762Z,95747.13
2022-12-15T21:02:18.814Z,95738.13
2022-12-15T21:04:47.290Z,95723.16
2022-12-15T21:07:14.945Z,95725.88
2022-12-15T21:09:42.540Z,95730.78
2022-12-15T21:12:18.102Z,95729.97
2022-12-15T21:14:45.708Z,95725.69
2022-12-15T21:17:15.708Z,95716.53
2022-12-15T21:19:43.424Z,95726.38
2022-12-15T21:22:17.118Z,95713.16
2022-12-15T21:24:44.825Z,95718.88
2022-12-15T21:27:15.483Z,95708.53
2022-12-15T21:29:48.731Z,95701.03
2022-12-15T21:32:19.786Z,95706.47
2022-12-15T21:34:47.353Z,95711.78
2022-12-15T21:37:23.249Z,95727.84
2022-12-15T21:39:50.919Z,95716.28
2022-12-15T21:42:20.973Z,95724.88
2022-12-15T21:44:48.892Z,95723.25
2022-12-15T21:47:24.848Z,95723.25
2022-12-15T21:49:51.718Z,95710.63
2022-12-15T21:52:20.926Z,95704.59
2022-12-15T21:54:48.498Z,95705.56
2022-12-15T21:57:16.066Z,95704.06
2022-12-15T21:59:44.989Z,95702.00
2022-12-15T22:02:25.057Z,95703.66
2022-12-15T22:04:55.031Z,95698.75
2022-12-15T22:07:22.817Z,95708.41
2022-12-15T22:09:51.733Z,95697.78
2022-12-15T22:12:21.264Z,95689.34
2022-12-15T22:14:50.407Z,95692.75
2022-12-15T22:17:21.612Z,95692.22
2022-12-15T22:19:49.282Z,95684.31
2022-12-15T22:22:17.023Z,95670.16
2022-12-15T22:24:44.710Z,95676.66
2022-12-15T22:27:18.766Z,95675.31
2022-12-15T22:29:46.386Z,95679.66
2022-12-15T22:32:16.304Z,95686.63
2022-12-15T22:34:44.103Z,95697.53
2022-12-15T22:37:13.134Z,95682.56
2022-12-15T22:39:40.758Z,95681.72
2022-12-15T22:42:09.105Z,95673.28
2022-12-15T22:44:38.262Z,95676.13
2022-12-15T22:47:05.960Z,95675.06
2022-12-15T22:49:37.469Z,95676.53
2022-12-15T22:52:15.078Z,95671.09
2022-12-15T22:54:45.563Z,95670.25
2022-12-15T22:57:20.574Z,95665.91
2022-12-15T22:59:52.187Z,95668.34
2022-12-15T23:02:22.139Z,95671.78
2022-12-15T23:04:53.829Z,95675.44
2022-12-15T23:07:22.348Z,95682.94
2022-12-15T23:10:09.983Z,95669.72
2022-12-15T23:12:36.646Z,95679.56
2022-12-15T23:15:21.970Z,95679.13
2022-12-15T23:17:49.631Z,95670.69
2022-12-15T23:20:19.469Z,95662.09
2022-12-15T23:22:47.150Z,95658.31
2022-12-15T23:25:14.925Z,95661.56
2022-12-15T23:27:43.042Z,95652.84
2022-12-15T23:30:12.679Z,95654.88
2022-12-15T23:32:40.370Z,95664.16
2022-12-15T23:35:08.432Z,95666.34
2022-12-15T23:37:37.402Z,95655.44
2022-12-15T23:40:06.602Z,95647.81
2022-12-15T23:42:34.153Z,95655.03
2022-12-15T23:45:01.842Z,95653.28
2022-12-15T23:47:29.564Z,95653.41
2022-12-15T23:49:57.435Z,95654.50
2022-12-15T23:52:28.345Z,95652.72
2022-12-15T23:54:57.299Z,95665.91
2022-12-15T23:57:24.899Z,95653.81
2022-12-15T23:59:52.492Z,95657.19
